マガダン の空港の天気 - METARとTAF

マガダン・ソコル空港 ( UHMM / GDX ) - ロシア マガダン
飛行場実況気象(Metar)
観測時間02/26 14:30 MAGT (02/26 03:30 UTC)
風向・風速北北東 3m/s
視程10km以上
天気現象
なし
気温-9℃
湿度44%
気圧1017hPa
METARUHMM 260330Z 03003MPS 320V080 9999 NSC M09/M19 Q1017 WS R10 R10/85//47 NOSIG RMK QFE748
過去の天気等 Google飛行場航空写真 Wunderground天気予報

過去48時間のMETAR

飛行場予報(TAF)
発表時間: 2/26 12:45 MAGT (2/26 01:45 UTC)
予報対象時間: 26日14時 MAGT ~ 27日20時 MAGT
風向・風速北北東 6m/s 瞬間風速 12m/s
視程10km以上
全天の4割程度の雲 雲底高度 910m
全天を覆う雲 雲底高度 2,130m
26日14時 MAGT ~ 26日22時 MAGT に一時的に
風向・風速東 3m/s 瞬間風速 8m/s
天気現象弱いしゅう雪
全天の8割程度の積乱雲 雲底高度 760m
TAF UHMM 260145Z 2603/2709 02006G12MPS 9999 SCT030 OVC070
TEMPO 2603/2611 08003G08MPS -SHSN BKN025CB